sensor_id;sensor_type;location;lat;lon;timestamp;pressure;altitude;pressure_sealevel;temperature;humidity
7297;BME280;40758;54.038;11.684;2023-02-11T00:02:00;102217.84;;;4.48;100.00
7297;BME280;40758;54.038;11.684;2023-02-11T00:04:31;102193.09;;;4.44;100.00
7297;BME280;40758;54.038;11.684;2023-02-11T00:06:59;102202.75;;;4.48;100.00
7297;BME280;40758;54.038;11.684;2023-02-11T00:09:28;102193.03;;;4.47;100.00
7297;BME280;40758;54.038;11.684;2023-02-11T00:11:57;102196.50;;;4.50;100.00
7297;BME280;40758;54.038;11.684;2023-02-11T00:14:26;102208.88;;;4.51;100.00
7297;BME280;40758;54.038;11.684;2023-02-11T00:16:57;102224.00;;;4.50;100.00
7297;BME280;40758;54.038;11.684;2023-02-11T00:19:25;102223.91;;;4.52;100.00
7297;BME280;40758;54.038;11.684;2023-02-11T00:21:53;102216.72;;;4.55;100.00
7297;BME280;40758;54.038;11.684;2023-02-11T00:24:22;102220.16;;;4.57;100.00
7297;BME280;40758;54.038;11.684;2023-02-11T00:26:50;102219.16;;;4.61;100.00
7297;BME280;40758;54.038;11.684;2023-02-11T00:29:19;102229.81;;;4.61;100.00
7297;BME280;40758;54.038;11.684;2023-02-11T00:31:47;102224.44;;;4.63;100.00
7297;BME280;40758;54.038;11.684;2023-02-11T00:34:17;102206.78;;;4.60;100.00
7297;BME280;40758;54.038;11.684;2023-02-11T00:36:48;102226.16;;;4.64;100.00
7297;BME280;40758;54.038;11.684;2023-02-11T00:39:16;102236.72;;;4.67;100.00
7297;BME280;40758;54.038;11.684;2023-02-11T00:41:45;102246.38;;;4.69;100.00
7297;BME280;40758;54.038;11.684;2023-02-11T00:44:14;102241.88;;;4.71;100.00
7297;BME280;40758;54.038;11.684;2023-02-11T00:46:42;102237.38;;;4.73;100.00
7297;BME280;40758;54.038;11.684;2023-02-11T00:49:11;102205.50;;;4.70;100.00
7297;BME280;40758;54.038;11.684;2023-02-11T00:51:41;102216.13;;;4.72;100.00
7297;BME280;40758;54.038;11.684;2023-02-11T00:54:09;102226.81;;;4.70;100.00
7297;BME280;40758;54.038;11.684;2023-02-11T00:56:38;102232.97;;;4.72;100.00
7297;BME280;40758;54.038;11.684;2023-02-11T00:59:06;102229.34;;;4.75;100.00
7297;BME280;40758;54.038;11.684;2023-02-11T01:01:35;102229.34;;;4.75;100.00
7297;BME280;40758;54.038;11.684;2023-02-11T01:04:04;102216.94;;;4.74;100.00
7297;BME280;40758;54.038;11.684;2023-02-11T01:06:32;102218.56;;;4.78;100.00
7297;BME280;40758;54.038;11.684;2023-02-11T01:09:02;102214.97;;;4.79;100.00
7297;BME280;40758;54.038;11.684;2023-02-11T01:11:31;102216.66;;;4.81;100.00
7297;BME280;40758;54.038;11.684;2023-02-11T01:13:59;102211.28;;;4.83;100.00
7297;BME280;40758;54.038;11.684;2023-02-11T01:16:28;102213.94;;;4.83;100.00
7297;BME280;40758;54.038;11.684;2023-02-11T01:18:58;102212.28;;;4.80;100.00
7297;BME280;40758;54.038;11.684;2023-02-11T01:21:26;102208.66;;;4.81;100.00
7297;BME280;40758;54.038;11.684;2023-02-11T01:23:56;102204.09;;;4.85;100.00
7297;BME280;40758;54.038;11.684;2023-02-11T01:26:26;102200.53;;;4.86;100.00
7297;BME280;40758;54.038;11.684;2023-02-11T01:28:55;102191.72;;;4.84;100.00
7297;BME280;40758;54.038;11.684;2023-02-11T01:31:29;102187.22;;;4.86;100.00
7297;BME280;40758;54.038;11.684;2023-02-11T01:33:58;102180.97;;;4.87;100.00
7297;BME280;40758;54.038;11.684;2023-02-11T01:36:27;102166.69;;;4.88;100.00
7297;BME280;40758;54.038;11.684;2023-02-11T01:38:56;102164.91;;;4.88;100.00
7297;BME280;40758;54.038;11.684;2023-02-11T01:41:26;102167.47;;;4.92;100.00
7297;BME280;40758;54.038;11.684;2023-02-11T01:43:54;102168.34;;;4.92;100.00
7297;BME280;40758;54.038;11.684;2023-02-11T01:46:34;102163.88;;;4.93;100.00
7297;BME280;40758;54.038;11.684;2023-02-11T01:49:09;102175.28;;;4.96;100.00
7297;BME280;40758;54.038;11.684;2023-02-11T01:51:42;102166.38;;;4.97;100.00
7297;BME280;40758;54.038;11.684;2023-02-11T01:54:17;102171.69;;;4.97;100.00
7297;BME280;40758;54.038;11.684;2023-02-11T01:57:06;102151.25;;;4.98;100.00
7297;BME280;40758;54.038;11.684;2023-02-11T02:00:07;102157.34;;;5.01;100.00
7297;BME280;40758;54.038;11.684;2023-02-11T02:02:45;102159.06;;;5.02;100.00
7297;BME280;40758;54.038;11.684;2023-02-11T02:05:25;102138.59;;;5.04;100.00
7297;BME280;40758;54.038;11.684;2023-02-11T02:08:22;102151.78;;;5.07;100.00
7297;BME280;40758;54.038;11.684;2023-02-11T02:10:54;102160.59;;;5.09;100.00
7297;BME280;40758;54.038;11.684;2023-02-11T02:13:30;102157.00;;;5.10;100.00
7297;BME280;40758;54.038;11.684;2023-02-11T02:16:01;102164.06;;;5.11;100.00
7297;BME280;40758;54.038;11.684;2023-02-11T02:18:42;102157.09;;;5.07;100.00
7297;BME280;40758;54.038;11.684;2023-02-11T02:22:10;102165.91;;;5.09;100.00
7297;BME280;40758;54.038;11.684;2023-02-11T02:25:41;102167.88;;;5.04;100.00
7297;BME280;40758;54.038;11.684;2023-02-11T02:28:40;102185.84;;;4.99;100.00
7297;BME280;40758;54.038;11.684;2023-02-11T02:31:40;102188.72;;;4.93;100.00
7297;BME280;40758;54.038;11.684;2023-02-11T02:34:23;102177.34;;;4.88;100.00
7297;BME280;40758;54.038;11.684;2023-02-11T02:37:02;102187.16;;;4.87;100.00
7297;BME280;40758;54.038;11.684;2023-02-11T02:39:35;102175.75;;;4.84;100.00
7297;BME280;40758;54.038;11.684;2023-02-11T02:42:04;102164.38;;;4.79;100.00
7297;BME280;40758;54.038;11.684;2023-02-11T02:44:33;102176.00;;;4.76;100.00
7297;BME280;40758;54.038;11.684;2023-02-11T02:47:01;102187.44;;;4.80;100.00
7297;BME280;40758;54.038;11.684;2023-02-11T02:49:31;102176.09;;;4.75;100.00
7297;BME280;40758;54.038;11.684;2023-02-11T02:52:15;102188.34;;;4.79;100.00
7297;BME280;40758;54.038;11.684;2023-02-11T02:55:24;102188.44;;;4.76;100.00
7297;BME280;40758;54.038;11.684;2023-02-11T02:58:37;102188.34;;;4.79;100.00
7297;BME280;40758;54.038;11.684;2023-02-11T03:01:25;102189.28;;;4.78;100.00
7297;BME280;40758;54.038;11.684;2023-02-11T03:04:07;102179.66;;;4.74;100.00
7297;BME280;40758;54.038;11.684;2023-02-11T03:06:50;102177.94;;;4.73;100.00
7297;BME280;40758;54.038;11.684;2023-02-11T03:09:28;102175.25;;;4.73;100.00
7297;BME280;40758;54.038;11.684;2023-02-11T03:12:01;102173.41;;;4.75;100.00
7297;BME280;40758;54.038;11.684;2023-02-11T03:14:31;102161.94;;;4.73;100.00
7297;BME280;40758;54.038;11.684;2023-02-11T03:17:04;102153.03;;;4.74;100.00
7297;BME280;40758;54.038;11.684;2023-02-11T03:19:38;102147.59;;;4.77;100.00
7297;BME280;40758;54.038;11.684;2023-02-11T03:22:16;102148.47;;;4.77;100.00
7297;BME280;40758;54.038;11.684;2023-02-11T03:24:45;102146.63;;;4.79;100.00
7297;BME280;40758;54.038;11.684;2023-02-11T03:27:20;102128.78;;;4.81;100.00
7297;BME280;40758;54.038;11.684;2023-02-11T03:29:58;102128.78;;;4.81;100.00
7297;BME280;40758;54.038;11.684;2023-02-11T03:32:31;102124.41;;;4.80;100.00
7297;BME280;40758;54.038;11.684;2023-02-11T03:35:10;102111.09;;;4.80;100.00
7297;BME280;40758;54.038;11.684;2023-02-11T03:37:50;102117.16;;;4.84;100.00
7297;BME280;40758;54.038;11.684;2023-02-11T03:40:24;102123.44;;;4.81;100.00
7297;BME280;40758;54.038;11.684;2023-02-11T03:42:58;102123.34;;;4.84;100.00
7297;BME280;40758;54.038;11.684;2023-02-11T03:45:27;102118.06;;;4.83;100.00
7297;BME280;40758;54.038;11.684;2023-02-11T03:48:01;102121.56;;;4.85;100.00
7297;BME280;40758;54.038;11.684;2023-02-11T03:50:34;102110.00;;;4.86;100.00
7297;BME280;40758;54.038;11.684;2023-02-11T03:53:06;102122.25;;;4.90;100.00
7297;BME280;40758;54.038;11.684;2023-02-11T03:55:39;102124.88;;;4.92;100.00
7297;BME280;40758;54.038;11.684;2023-02-11T03:58:08;102122.25;;;4.90;100.00
7297;BME280;40758;54.038;11.684;2023-02-11T04:00:41;102129.31;;;4.91;100.00
7297;BME280;40758;54.038;11.684;2023-02-11T04:03:11;102139.84;;;4.94;100.00
7297;BME280;40758;54.038;11.684;2023-02-11T04:05:40;102142.41;;;4.97;100.00
7297;BME280;40758;54.038;11.684;2023-02-11T04:08:10;102137.03;;;4.99;100.00
7297;BME280;40758;54.038;11.684;2023-02-11T04:10:38;102142.16;;;5.03;100.00
7297;BME280;40758;54.038;11.684;2023-02-11T04:13:06;102136.94;;;5.00;100.00
7297;BME280;40758;54.038;11.684;2023-02-11T04:15:34;102135.78;;;5.07;100.00
7297;BME280;40758;54.038;11.684;2023-02-11T04:18:03;102139.28;;;5.09;100.00
7297;BME280;40758;54.038;11.684;2023-02-11T04:20:32;102145.47;;;5.10;100.00
7297;BME280;40758;54.038;11.684;2023-02-11T04:23:00;102149.69;;;5.15;100.00
7297;BME280;40758;54.038;11.684;2023-02-11T04:25:30;102128.47;;;5.12;100.00
7297;BME280;40758;54.038;11.684;2023-02-11T04:27:58;102131.03;;;5.15;100.00
7297;BME280;40758;54.038;11.684;2023-02-11T04:30:26;102139.03;;;5.15;100.00
7297;BME280;40758;54.038;11.684;2023-02-11T04:32:55;102141.53;;;5.20;100.00
7297;BME280;40758;54.038;11.684;2023-02-11T04:35:25;102134.44;;;5.19;100.00
7297;BME280;40758;54.038;11.684;2023-02-11T04:37:54;102135.22;;;5.22;100.00
7297;BME280;40758;54.038;11.684;2023-02-11T04:40:22;102134.28;;;5.23;100.00
7297;BME280;40758;54.038;11.684;2023-02-11T04:42:52;102129.00;;;5.22;100.00
7297;BME280;40758;54.038;11.684;2023-02-11T04:45:22;102128.03;;;5.24;100.00
7297;BME280;40758;54.038;11.684;2023-02-11T04:47:50;102119.09;;;5.25;100.00
7297;BME280;40758;54.038;11.684;2023-02-11T04:50:19;102118.06;;;5.29;100.00
7297;BME280;40758;54.038;11.684;2023-02-11T04:52:47;102101.25;;;5.27;100.00
7297;BME280;40758;54.038;11.684;2023-02-11T04:55:16;102094.94;;;5.30;100.00
7297;BME280;40758;54.038;11.684;2023-02-11T04:57:44;102077.28;;;5.27;100.00
7297;BME280;40758;54.038;11.684;2023-02-11T05:00:16;102062.84;;;5.33;100.00
7297;BME280;40758;54.038;11.684;2023-02-11T05:02:44;102077.09;;;5.32;100.00
7297;BME280;40758;54.038;11.684;2023-02-11T05:05:13;102059.31;;;5.33;100.00
7297;BME280;40758;54.038;11.684;2023-02-11T05:07:41;102058.44;;;5.32;100.00
7297;BME280;40758;54.038;11.684;2023-02-11T05:10:10;102047.72;;;5.34;100.00
7297;BME280;40758;54.038;11.684;2023-02-11T05:12:38;102053.06;;;5.34;100.00
7297;BME280;40758;54.038;11.684;2023-02-11T05:15:07;102040.59;;;5.34;100.00
7297;BME280;40758;54.038;11.684;2023-02-11T05:17:37;102040.53;;;5.36;100.00
7297;BME280;40758;54.038;11.684;2023-02-11T05:20:06;102044.25;;;5.32;100.00
7297;BME280;40758;54.038;11.684;2023-02-11T05:22:35;102051.31;;;5.33;100.00
7297;BME280;40758;54.038;11.684;2023-02-11T05:25:04;102037.00;;;5.35;100.00
7297;BME280;40758;54.038;11.684;2023-02-11T05:27:32;102041.47;;;5.35;100.00
7297;BME280;40758;54.038;11.684;2023-02-11T05:30:04;102040.41;;;5.39;100.00
7297;BME280;40758;54.038;11.684;2023-02-11T05:32:33;102031.63;;;5.37;100.00
7297;BME280;40758;54.038;11.684;2023-02-11T05:35:03;102023.47;;;5.40;100.00
7297;BME280;40758;54.038;11.684;2023-02-11T05:37:31;102035.94;;;5.39;100.00
7297;BME280;40758;54.038;11.684;2023-02-11T05:40:00;102027.88;;;5.41;100.00
7297;BME280;40758;54.038;11.684;2023-02-11T05:42:28;102022.56;;;5.41;100.00
7297;BME280;40758;54.038;11.684;2023-02-11T05:44:56;102003.91;;;5.41;100.00
7297;BME280;40758;54.038;11.684;2023-02-11T05:47:25;102023.22;;;5.46;100.00
7297;BME280;40758;54.038;11.684;2023-02-11T05:49:53;102016.97;;;5.47;100.00
7297;BME280;40758;54.038;11.684;2023-02-11T05:52:24;102011.66;;;5.47;100.00
7297;BME280;40758;54.038;11.684;2023-02-11T05:54:52;101995.66;;;5.47;100.00
7297;BME280;40758;54.038;11.684;2023-02-11T05:57:21;101993.78;;;5.49;100.00
7297;BME280;40758;54.038;11.684;2023-02-11T05:59:49;101995.66;;;5.47;100.00
7297;BME280;40758;54.038;11.684;2023-02-11T06:02:18;101986.72;;;5.48;100.00
7297;BME280;40758;54.038;11.684;2023-02-11T06:04:49;101993.91;;;5.46;100.00
7297;BME280;40758;54.038;11.684;2023-02-11T06:07:17;102008.84;;;5.50;100.00
7297;BME280;40758;54.038;11.684;2023-02-11T06:09:48;102009.66;;;5.52;100.00
7297;BME280;40758;54.038;11.684;2023-02-11T06:12:16;102014.00;;;5.54;100.00
7297;BME280;40758;54.038;11.684;2023-02-11T06:14:44;102026.47;;;5.54;100.00
7297;BME280;40758;54.038;11.684;2023-02-11T06:17:13;102030.00;;;5.54;100.00
7297;BME280;40758;54.038;11.684;2023-02-11T06:19:41;102050.31;;;5.57;100.00
7297;BME280;40758;54.038;11.684;2023-02-11T06:22:10;102062.44;;;5.64;100.00
7297;BME280;40758;54.038;11.684;2023-02-11T06:24:38;102071.13;;;5.69;100.00
7297;BME280;40758;54.038;11.684;2023-02-11T06:27:27;102070.13;;;5.72;100.00
7297;BME280;40758;54.038;11.684;2023-02-11T06:29:56;102069.28;;;5.71;100.00
7297;BME280;40758;54.038;11.684;2023-02-11T06:32:26;102065.53;;;5.75;100.00
7297;BME280;40758;54.038;11.684;2023-02-11T06:35:10;102064.59;;;5.76;100.00
7297;BME280;40758;54.038;11.684;2023-02-11T06:37:39;102059.22;;;5.78;100.00
7297;BME280;40758;54.038;11.684;2023-02-11T06:40:08;102066.13;;;5.82;100.00
7297;BME280;40758;54.038;11.684;2023-02-11T06:42:38;102063.31;;;5.86;100.00
7297;BME280;40758;54.038;11.684;2023-02-11T06:45:08;102072.94;;;5.90;100.00
7297;BME280;40758;54.038;11.684;2023-02-11T06:47:39;102070.25;;;5.90;100.00
7297;BME280;40758;54.038;11.684;2023-02-11T06:50:12;102066.41;;;5.97;100.00
7297;BME280;40758;54.038;11.684;2023-02-11T06:52:40;102072.53;;;5.99;100.00
7297;BME280;40758;54.038;11.684;2023-02-11T06:55:09;102072.63;;;5.98;100.00
7297;BME280;40758;54.038;11.684;2023-02-11T06:57:39;102094.94;;;5.95;100.00
7297;BME280;40758;54.038;11.684;2023-02-11T07:00:09;102088.69;;;5.96;100.00
7297;BME280;40758;54.038;11.684;2023-02-11T07:02:38;102087.09;;;5.92;100.00
7297;BME280;40758;54.038;11.684;2023-02-11T07:05:07;102087.09;;;5.92;100.00
7297;BME280;40758;54.038;11.684;2023-02-11T07:07:41;102089.00;;;5.89;100.00
7297;BME280;40758;54.038;11.684;2023-02-11T07:10:10;102050.66;;;5.91;100.00
7297;BME280;40758;54.038;11.684;2023-02-11T07:12:39;102084.41;;;5.92;100.00
7297;BME280;40758;54.038;11.684;2023-02-11T07:15:08;102077.34;;;5.91;100.00
7297;BME280;40758;54.038;11.684;2023-02-11T07:17:37;102078.94;;;5.95;100.00
7297;BME280;40758;54.038;11.684;2023-02-11T07:20:06;102067.13;;;6.01;100.00
7297;BME280;40758;54.038;11.684;2023-02-11T07:22:35;102072.34;;;6.04;100.00
7297;BME280;40758;54.038;11.684;2023-02-11T07:25:04;102078.41;;;6.07;100.00
7297;BME280;40758;54.038;11.684;2023-02-11T07:27:33;102097.75;;;6.13;100.00
7297;BME280;40758;54.038;11.684;2023-02-11T07:30:03;102101.22;;;6.15;100.00
7297;BME280;40758;54.038;11.684;2023-02-11T07:32:33;102113.66;;;6.16;100.00
7297;BME280;40758;54.038;11.684;2023-02-11T07:35:01;102109.09;;;6.18;100.00
7297;BME280;40758;54.038;11.684;2023-02-11T07:37:32;102109.03;;;6.19;100.00
7297;BME280;40758;54.038;11.684;2023-02-11T07:40:02;102117.91;;;6.20;100.00
7297;BME280;40758;54.038;11.684;2023-02-11T07:42:30;102124.84;;;6.24;100.00
7297;BME280;40758;54.038;11.684;2023-02-11T07:44:59;102119.50;;;6.24;100.00
7297;BME280;40758;54.038;11.684;2023-02-11T07:47:28;102129.13;;;6.28;100.00
7297;BME280;40758;54.038;11.684;2023-02-11T07:49:56;102130.00;;;6.28;100.00
7297;BME280;40758;54.038;11.684;2023-02-11T07:52:28;102128.19;;;6.29;100.00
7297;BME280;40758;54.038;11.684;2023-02-11T07:54:56;102141.53;;;6.29;100.00
7297;BME280;40758;54.038;11.684;2023-02-11T07:57:24;102137.91;;;6.30;100.00
7297;BME280;40758;54.038;11.684;2023-02-11T07:59:53;102134.47;;;6.28;100.00
7297;BME280;40758;54.038;11.684;2023-02-11T08:02:21;102123.72;;;6.29;100.00
7297;BME280;40758;54.038;11.684;2023-02-11T08:04:51;102144.13;;;6.30;100.00
7297;BME280;40758;54.038;11.684;2023-02-11T08:07:20;102138.78;;;6.30;100.00
7297;BME280;40758;54.038;11.684;2023-02-11T08:09:49;102152.06;;;6.32;100.00
7297;BME280;40758;54.038;11.684;2023-02-11T08:12:17;102161.00;;;6.31;100.00
7297;BME280;40758;54.038;11.684;2023-02-11T08:14:45;102164.59;;;6.30;100.00
7297;BME280;40758;54.038;11.684;2023-02-11T08:17:15;102160.22;;;6.29;100.00
7297;BME280;40758;54.038;11.684;2023-02-11T08:19:43;102143.41;;;6.27;100.00
7297;BME280;40758;54.038;11.684;2023-02-11T08:22:13;102153.22;;;6.26;100.00
7297;BME280;40758;54.038;11.684;2023-02-11T08:24:41;102143.25;;;6.30;100.00
7297;BME280;40758;54.038;11.684;2023-02-11T08:27:10;102154.63;;;6.35;100.00
7297;BME280;40758;54.038;11.684;2023-02-11T08:29:38;102163.34;;;6.38;100.00
7297;BME280;40758;54.038;11.684;2023-02-11T08:32:06;102187.19;;;6.43;100.00
7297;BME280;40758;54.038;11.684;2023-02-11T08:34:34;102195.06;;;6.46;100.00
7297;BME280;40758;54.038;11.684;2023-02-11T08:37:03;102199.53;;;6.45;100.00
7297;BME280;40758;54.038;11.684;2023-02-11T08:39:34;102194.41;;;6.41;100.00
7297;BME280;40758;54.038;11.684;2023-02-11T08:42:03;102180.09;;;6.42;100.00
7297;BME280;40758;54.038;11.684;2023-02-11T08:44:31;102179.38;;;6.38;100.00
7297;BME280;40758;54.038;11.684;2023-02-11T08:46:59;102184.00;;;6.35;100.00
7297;BME280;40758;54.038;11.684;2023-02-11T08:49:30;102179.63;;;6.32;100.00
7297;BME280;40758;54.038;11.684;2023-02-11T08:52:00;102177.78;;;6.34;100.00
7297;BME280;40758;54.038;11.684;2023-02-11T08:54:30;102175.13;;;6.34;100.00
7297;BME280;40758;54.038;11.684;2023-02-11T08:57:01;102163.63;;;6.32;100.00
7297;BME280;40758;54.038;11.684;2023-02-11T08:59:30;102166.09;;;6.37;100.00
7297;BME280;40758;54.038;11.684;2023-02-11T09:01:58;102177.63;;;6.37;100.00
7297;BME280;40758;54.038;11.684;2023-02-11T09:04:27;102177.44;;;6.42;100.00
7297;BME280;40758;54.038;11.684;2023-02-11T09:06:56;102166.84;;;6.40;100.00
7297;BME280;40758;54.038;11.684;2023-02-11T09:09:24;102178.25;;;6.44;100.00
7297;BME280;40758;54.038;11.684;2023-02-11T09:11:54;102165.03;;;6.41;100.00
7297;BME280;40758;54.038;11.684;2023-02-11T09:14:24;102139.13;;;6.43;100.00
7297;BME280;40758;54.038;11.684;2023-02-11T09:16:53;102151.44;;;6.47;100.00
7297;BME280;40758;54.038;11.684;2023-02-11T09:19:22;102170.84;;;6.50;100.00
7297;BME280;40758;54.038;11.684;2023-02-11T09:21:51;102174.09;;;6.57;100.00
7297;BME280;40758;54.038;11.684;2023-02-11T09:24:23;102174.00;;;6.60;100.00
7297;BME280;40758;54.038;11.684;2023-02-11T09:26:51;102184.41;;;6.66;100.00
7297;BME280;40758;54.038;11.684;2023-02-11T09:29:21;102170.25;;;6.64;100.00
7297;BME280;40758;54.038;11.684;2023-02-11T09:31:51;102179.06;;;6.66;100.00
7297;BME280;40758;54.038;11.684;2023-02-11T09:34:19;102175.44;;;6.67;100.00
7297;BME280;40758;54.038;11.684;2023-02-11T09:36:48;102169.81;;;6.73;100.00
7297;BME280;40758;54.038;11.684;2023-02-11T09:39:18;102149.78;;;6.83;100.00
7297;BME280;40758;54.038;11.684;2023-02-11T09:42:35;102164.72;;;7.08;100.00
7297;BME280;40758;54.038;11.684;2023-02-11T09:45:14;102170.97;;;7.07;100.00
7297;BME280;40758;54.038;11.684;2023-02-11T09:47:54;102164.25;;;7.17;100.00
7297;BME280;40758;54.038;11.684;2023-02-11T09:50:29;102171.88;;;7.26;100.00
7297;BME280;40758;54.038;11.684;2023-02-11T09:53:04;102170.94;;;7.27;100.00
7297;BME280;40758;54.038;11.684;2023-02-11T09:55:38;102197.22;;;7.36;100.00
7297;BME280;40758;54.038;11.684;2023-02-11T09:58:13;102191.16;;;7.32;100.00
7297;BME280;40758;54.038;11.684;2023-02-11T10:00:51;102181.69;;;7.25;100.00
7297;BME280;40758;54.038;11.684;2023-02-11T10:03:53;102185.81;;;7.32;100.00
7297;BME280;40758;54.038;11.684;2023-02-11T10:06:41;102190.44;;;7.29;100.00
7297;BME280;40758;54.038;11.684;2023-02-11T10:09:39;102190.31;;;7.32;100.00
7297;BME280;40758;54.038;11.684;2023-02-11T10:12:27;102185.03;;;7.30;100.00
7297;BME280;40758;54.038;11.684;2023-02-11T10:15:14;102191.47;;;7.26;100.00
7297;BME280;40758;54.038;11.684;2023-02-11T10:18:02;102217.16;;;7.29;100.00
7297;BME280;40758;54.038;11.684;2023-02-11T10:20:38;102218.25;;;7.25;100.00
7297;BME280;40758;54.038;11.684;2023-02-11T10:23:20;102219.06;;;7.27;100.00
7297;BME280;40758;54.038;11.684;2023-02-11T10:25:53;102223.59;;;7.25;100.00
7297;BME280;40758;54.038;11.684;2023-02-11T10:28:28;102216.00;;;7.16;100.00
7297;BME280;40758;54.038;11.684;2023-02-11T10:31:00;102201.91;;;7.12;100.00
7297;BME280;40758;54.038;11.684;2023-02-11T10:33:38;102194.75;;;7.13;100.00
7297;BME280;40758;54.038;11.684;2023-02-11T10:36:14;102207.13;;;7.15;100.00
7297;BME280;40758;54.038;11.684;2023-02-11T10:38:44;102230.81;;;7.23;100.00
7297;BME280;40758;54.038;11.684;2023-02-11T10:41:19;102229.31;;;7.36;100.00
7297;BME280;40758;54.038;11.684;2023-02-11T10:43:50;102229.59;;;7.30;100.00
7297;BME280;40758;54.038;11.684;2023-02-11T10:46:24;102234.06;;;7.29;100.00
7297;BME280;40758;54.038;11.684;2023-02-11T10:48:57;102227.19;;;7.24;100.00
7297;BME280;40758;54.038;11.684;2023-02-11T10:51:29;102229.16;;;7.20;100.00
7297;BME280;40758;54.038;11.684;2023-02-11T10:54:17;102243.47;;;7.19;100.00
7297;BME280;40758;54.038;11.684;2023-02-11T10:56:58;102242.59;;;7.19;100.00
7297;BME280;40758;54.038;11.684;2023-02-11T10:59:30;102251.41;;;7.21;100.00
7297;BME280;40758;54.038;11.684;2023-02-11T11:02:04;102253.94;;;7.24;100.00
7297;BME280;40758;54.038;11.684;2023-02-11T11:04:39;102251.41;;;7.21;100.00
7297;BME280;40758;54.038;11.684;2023-02-11T11:07:17;102230.22;;;7.16;100.00
7297;BME280;40758;54.038;11.684;2023-02-11T11:09:51;102226.16;;;7.08;100.00
7297;BME280;40758;54.038;11.684;2023-02-11T11:12:35;102232.66;;;7.02;100.00
7297;BME280;40758;54.038;11.684;2023-02-11T11:15:21;102255.63;;;7.06;100.00
7297;BME280;40758;54.038;11.684;2023-02-11T11:18:09;102265.38;;;7.07;100.00
7297;BME280;40758;54.038;11.684;2023-02-11T11:20:57;102269.97;;;7.04;100.00
7297;BME280;40758;54.038;11.684;2023-02-11T11:23:30;102274.50;;;7.03;100.00
7297;BME280;40758;54.038;11.684;2023-02-11T11:26:06;102284.31;;;7.03;100.00
7297;BME280;40758;54.038;11.684;2023-02-11T11:28:40;102282.78;;;6.97;100.00
7297;BME280;40758;54.038;11.684;2023-02-11T11:31:14;102276.63;;;6.95;100.00
7297;BME280;40758;54.038;11.684;2023-02-11T11:33:46;102278.34;;;6.96;100.00
7297;BME280;40758;54.038;11.684;2023-02-11T11:36:20;102271.34;;;6.94;100.00
7297;BME280;40758;54.038;11.684;2023-02-11T11:38:56;102280.44;;;6.89;100.00
7297;BME280;40758;54.038;11.684;2023-02-11T11:41:28;102292.91;;;6.89;100.00
7297;BME280;40758;54.038;11.684;2023-02-11T11:44:04;102287.38;;;6.94;100.00
7297;BME280;40758;54.038;11.684;2023-02-11T11:46:48;102287.41;;;6.92;100.00
7297;BME280;40758;54.038;11.684;2023-02-11T11:49:28;102295.25;;;6.97;100.00
7297;BME280;40758;54.038;11.684;2023-02-11T11:52:17;102278.16;;;7.01;100.00
7297;BME280;40758;54.038;11.684;2023-02-11T11:54:55;102269.72;;;7.10;100.00
7297;BME280;40758;54.038;11.684;2023-02-11T11:57:27;102274.38;;;7.25;100.00
7297;BME280;40758;54.038;11.684;2023-02-11T11:59:57;102264.72;;;7.41;100.00
7297;BME280;40758;54.038;11.684;2023-02-11T12:03:12;102271.91;;;7.59;100.00
7297;BME280;40758;54.038;11.684;2023-02-11T12:06:01;102268.28;;;7.60;100.00
7297;BME280;40758;54.038;11.684;2023-02-11T12:08:43;102250.72;;;7.73;100.00
7297;BME280;40758;54.038;11.684;2023-02-11T12:11:30;102271.31;;;7.71;100.00
7297;BME280;40758;54.038;11.684;2023-02-11T12:14:18;102278.06;;;7.80;100.00
7297;BME280;40758;54.038;11.684;2023-02-11T12:17:02;102274.47;;;7.81;100.00
7297;BME280;40758;54.038;11.684;2023-02-11T12:19:54;102268.94;;;7.47;100.00
7297;BME280;40758;54.038;11.684;2023-02-11T12:22:40;102277.44;;;7.36;100.00
7297;BME280;40758;54.038;11.684;2023-02-11T12:25:27;102272.53;;;7.27;100.00
7297;BME280;40758;54.038;11.684;2023-02-11T12:28:18;102268.75;;;7.31;100.00
7297;BME280;40758;54.038;11.684;2023-02-11T12:31:02;102269.84;;;7.27;100.00
7297;BME280;40758;54.038;11.684;2023-02-11T12:33:57;102294.63;;;7.30;100.00
7297;BME280;40758;54.038;11.684;2023-02-11T12:36:44;102288.50;;;7.47;100.00
7297;BME280;40758;54.038;11.684;2023-02-11T12:39:32;102299.16;;;7.49;100.00
7297;BME280;40758;54.038;11.684;2023-02-11T12:42:49;102303.91;;;7.42;100.00
7297;BME280;40758;54.038;11.684;2023-02-11T12:46:14;102313.00;;;7.38;100.00
7297;BME280;40758;54.038;11.684;2023-02-11T12:49:07;102312.47;;;7.50;100.00
7297;BME280;40758;54.038;11.684;2023-02-11T12:52:18;102298.28;;;7.48;100.00
7297;BME280;40758;54.038;11.684;2023-02-11T12:54:53;102305.00;;;7.38;100.00
7297;BME280;40758;54.038;11.684;2023-02-11T12:57:27;102289.75;;;7.40;100.00
7297;BME280;40758;54.038;11.684;2023-02-11T13:00:03;102299.31;;;7.46;100.00
7297;BME280;40758;54.038;11.684;2023-02-11T13:02:41;102296.69;;;7.44;100.00
7297;BME280;40758;54.038;11.684;2023-02-11T13:05:24;102312.84;;;7.41;100.00
7297;BME280;40758;54.038;11.684;2023-02-11T13:08:01;102303.31;;;7.36;100.00
7297;BME280;40758;54.038;11.684;2023-02-11T13:10:35;102311.22;;;7.39;100.00
7297;BME280;40758;54.038;11.684;2023-02-11T13:13:22;102318.88;;;7.46;100.00
7297;BME280;40758;54.038;11.684;2023-02-11T13:16:01;102317.28;;;7.42;100.00
7297;BME280;40758;54.038;11.684;2023-02-11T13:18:48;102322.19;;;7.32;100.00
7297;BME280;40758;54.038;11.684;2023-02-11T13:21:40;102320.50;;;7.30;100.00
7297;BME280;40758;54.038;11.684;2023-02-11T13:24:22;102325.34;;;7.22;100.00
7297;BME280;40758;54.038;11.684;2023-02-11T13:27:03;102317.69;;;7.13;100.00
7297;BME280;40758;54.038;11.684;2023-02-11T13:30:01;102320.16;;;7.17;100.00